Time;durP1;ratioP1;P1;durP2;ratioP2;P2;SDS_P1;SDS_P2;PMS_P1;PMS_P2;Temp;Humidity;BMP_temperature;BMP_pressure;BME280_temperature;BME280_humidity;BME280_pressure;Samples;Min_cycle;Max_cycle;Signal;HPM_P1;HPM_P2
2021/05/24 00:00:31;;;;;;;3.28;0.73;;;21.40;44.00;;;;;;5051171;28;20044;-34
2021/05/24 00:02:57;;;;;;;4.05;0.90;;;21.40;44.00;;;;;;5053766;28;20032;-37
2021/05/24 00:05:29;;;;;;;1.48;0.98;;;21.30;44.00;;;;;;5051573;28;20021;-34
2021/05/24 00:07:55;;;;;;;;;;;21.40;44.10;;;;;;5054464;28;20039;-34
2021/05/24 00:10:24;;;;;;;1.77;0.88;;;21.30;44.00;;;;;;5057052;28;19990;-40
2021/05/24 00:12:51;;;;;;;2.97;0.85;;;21.30;44.10;;;;;;5045327;28;20476;-35
2021/05/24 00:15:19;;;;;;;1.70;0.82;;;21.30;44.10;;;;;;5056389;28;20021;-34
2021/05/24 00:17:46;;;;;;;2.97;0.80;;;21.30;44.20;;;;;;5050874;28;20486;-37
2021/05/24 00:20:13;;;;;;;2.17;0.98;;;21.40;44.20;;;;;;5056281;28;20073;-36
2021/05/24 00:22:38;;;;;;;2.60;0.82;;;21.30;44.10;;;;;;5052671;28;20044;-34
2021/05/24 00:25:05;;;;;;;1.55;0.82;;;21.30;44.10;;;;;;5053936;28;20029;-35
2021/05/24 00:27:32;;;;;;;6.32;0.98;;;21.30;44.10;;;;;;5053679;28;20079;-34
2021/05/24 00:29:57;;;;;;;3.38;1.10;;;21.30;44.10;;;;;;5055385;28;20036;-35
2021/05/24 00:32:23;;;;;;;1.55;0.98;;;21.30;44.10;;;;;;5055739;28;20017;-35
2021/05/24 00:34:49;;;;;;;1.90;0.93;;;21.30;44.20;;;;;;5046195;28;20037;-34
2021/05/24 00:37:15;;;;;;;2.60;0.90;;;21.30;44.20;;;;;;5053077;28;20385;-35
2021/05/24 00:39:40;;;;;;;5.28;1.08;;;21.30;44.20;;;;;;5050664;28;20027;-34
2021/05/24 00:42:06;;;;;;;1.60;0.95;;;21.30;44.10;;;;;;5059204;28;20474;-34
2021/05/24 00:44:32;;;;;;;2.35;0.95;;;21.30;44.20;;;;;;5051701;28;20029;-40
2021/05/24 00:46:57;;;;;;;1.88;1.00;;;21.30;44.20;;;;;;5060148;28;20079;-35
2021/05/24 00:49:27;;;;;;;1.63;0.80;;;21.30;44.20;;;;;;5052184;28;20029;-35
2021/05/24 00:51:55;;;;;;;2.75;0.93;;;21.30;44.10;;;;;;5052083;28;20119;-34
2021/05/24 00:54:22;;;;;;;1.17;0.75;;;21.30;44.10;;;;;;5050771;28;20035;-40
2021/05/24 00:56:48;;;;;;;2.08;0.82;;;21.30;44.20;;;;;;5052761;28;20037;-35
2021/05/24 00:59:13;;;;;;;1.25;0.80;;;21.30;44.10;;;;;;5054371;28;20040;-37
2021/05/24 01:01:39;;;;;;;2.83;1.00;;;21.30;44.20;;;;;;5051350;28;20568;-35
2021/05/24 01:04:05;;;;;;;1.83;0.90;;;21.30;44.20;;;;;;5053493;28;20381;-34
2021/05/24 01:06:30;;;;;;;1.95;0.82;;;21.30;44.20;;;;;;5056276;28;20037;-34
2021/05/24 01:08:56;;;;;;;1.17;0.77;;;21.30;44.20;;;;;;5051090;28;20025;-34
2021/05/24 01:11:23;;;;;;;4.15;1.20;;;21.40;44.20;;;;;;5052195;28;20358;-40
2021/05/24 01:13:49;;;;;;;1.70;0.98;;;21.30;44.20;;;;;;5051922;28;20100;-34
2021/05/24 01:16:15;;;;;;;2.65;0.85;;;21.30;44.20;;;;;;5051502;28;20037;-34
2021/05/24 01:18:41;;;;;;;1.23;0.77;;;21.30;44.20;;;;;;5052097;28;20103;-35
2021/05/24 01:21:14;;;;;;;2.25;1.38;;;21.30;44.30;;;;;;5059557;28;20143;-36
2021/05/24 01:23:44;;;;;;;1.63;1.30;;;21.30;44.30;;;;;;5054618;28;20064;-36
2021/05/24 01:26:10;;;;;;;1.85;1.10;;;21.30;44.40;;;;;;5060244;28;20132;-35
2021/05/24 01:28:36;;;;;;;1.45;0.65;;;21.30;44.40;;;;;;5055975;28;20046;-35
2021/05/24 01:31:04;;;;;;;1.77;0.80;;;21.30;44.30;;;;;;5058769;28;20048;-34
2021/05/24 01:33:30;;;;;;;1.48;1.10;;;21.30;44.30;;;;;;5056496;28;20036;-36
2021/05/24 01:35:56;;;;;;;5.22;1.15;;;21.30;44.40;;;;;;5039134;28;20394;-35
2021/05/24 01:38:21;;;;;;;2.75;0.90;;;21.30;44.30;;;;;;5054889;28;20029;-42
2021/05/24 01:40:47;;;;;;;2.85;0.93;;;21.30;44.30;;;;;;5060091;28;20393;-37
2021/05/24 01:43:15;;;;;;;2.30;1.00;;;21.30;44.40;;;;;;5060215;28;20024;-35
2021/05/24 01:45:41;;;;;;;2.38;1.25;;;21.30;44.40;;;;;;5055957;28;20017;-34
2021/05/24 01:48:08;;;;;;;4.03;1.20;;;21.30;44.30;;;;;;5057860;28;21056;-35
2021/05/24 01:50:34;;;;;;;1.83;0.80;;;21.30;44.40;;;;;;5059161;28;20037;-35
2021/05/24 01:52:59;;;;;;;4.07;0.93;;;21.30;44.40;;;;;;5059664;28;20039;-35
2021/05/24 01:55:25;;;;;;;1.70;0.75;;;21.30;44.30;;;;;;5058460;28;20025;-35
2021/05/24 01:57:53;;;;;;;1.17;0.75;;;21.30;44.40;;;;;;5057090;28;20045;-35
2021/05/24 02:00:21;;;;;;;3.55;1.08;;;21.30;44.30;;;;;;5055526;28;20032;-34
2021/05/24 02:02:49;;;;;;;3.53;1.00;;;21.30;44.30;;;;;;5059158;28;20107;-37
2021/05/24 02:05:17;;;;;;;1.48;0.90;;;21.30;44.30;;;;;;5058406;28;20382;-34
2021/05/24 02:07:44;;;;;;;3.05;0.93;;;21.30;44.40;;;;;;5058344;28;20224;-34
2021/05/24 02:10:12;;;;;;;3.20;1.20;;;21.30;44.30;;;;;;5054424;28;20041;-36
2021/05/24 02:12:39;;;;;;;3.30;0.90;;;21.30;44.30;;;;;;5056609;28;20029;-35
2021/05/24 02:15:07;;;;;;;3.92;0.93;;;21.30;44.30;;;;;;5052702;28;20024;-34
2021/05/24 02:17:33;;;;;;;3.20;0.85;;;21.30;44.40;;;;;;5047894;28;20036;-35
2021/05/24 02:19:59;;;;;;;2.20;0.90;;;21.30;44.40;;;;;;5043204;28;20021;-34
2021/05/24 02:22:24;;;;;;;3.22;1.02;;;21.30;44.40;;;;;;5047632;28;20033;-34
2021/05/24 02:24:50;;;;;;;2.30;1.00;;;21.30;44.40;;;;;;5049113;28;20108;-35
2021/05/24 02:27:16;;;;;;;1.40;0.70;;;21.30;44.40;;;;;;5049940;28;20166;-36
2021/05/24 02:29:42;;;;;;;2.22;1.05;;;21.30;44.40;;;;;;5052338;28;20102;-34
2021/05/24 02:32:08;;;;;;;2.97;0.93;;;21.30;45.10;;;;;;5051117;28;20092;-34
2021/05/24 02:34:34;;;;;;;2.60;0.65;;;21.30;44.50;;;;;;5049475;28;20025;-35
2021/05/24 02:37:00;;;;;;;3.13;0.90;;;21.30;44.40;;;;;;5050658;28;20037;-35
2021/05/24 02:39:26;;;;;;;2.47;1.00;;;21.30;44.50;;;;;;5047655;28;20040;-35
2021/05/24 02:41:52;;;;;;;3.58;1.20;;;21.30;44.50;;;;;;5055804;28;20056;-34
2021/05/24 02:44:18;;;;;;;1.52;0.80;;;21.20;44.40;;;;;;5051091;28;20051;-34
2021/05/24 02:46:43;;;;;;;2.53;1.02;;;21.30;44.50;;;;;;5034653;28;20041;-34
2021/05/24 02:49:09;;;;;;;2.05;1.08;;;21.30;44.50;;;;;;5052987;28;20078;-34
2021/05/24 02:51:36;;;;;;;1.75;0.90;;;21.30;44.50;;;;;;5049361;28;20407;-34
2021/05/24 02:54:04;;;;;;;1.92;0.88;;;21.30;44.50;;;;;;5049965;28;20064;-34
2021/05/24 02:56:29;;;;;;;2.75;1.05;;;21.30;44.50;;;;;;5047100;28;20030;-34
2021/05/24 02:58:55;;;;;;;2.53;0.93;;;21.30;44.60;;;;;;5058703;28;20128;-34
2021/05/24 03:01:21;;;;;;;5.95;1.30;;;21.30;44.60;;;;;;5053011;28;20395;-34
2021/05/24 03:03:53;;;;;;;1.70;0.80;;;21.30;44.60;;;;;;5048983;28;20029;-35
2021/05/24 03:06:19;;;;;;;1.70;0.80;;;21.30;44.60;;;;;;5050933;28;20033;-34
2021/05/24 03:08:45;;;;;;;2.13;1.05;;;21.20;44.50;;;;;;5056111;28;20028;-36
2021/05/24 03:11:11;;;;;;;2.58;0.85;;;21.30;44.60;;;;;;5050560;28;20098;-34
2021/05/24 03:13:37;;;;;;;1.75;0.90;;;21.20;44.50;;;;;;5052634;28;20033;-34
2021/05/24 03:16:03;;;;;;;2.38;0.82;;;21.30;44.60;;;;;;5051741;28;20378;-34
2021/05/24 03:18:29;;;;;;;3.25;0.90;;;21.20;44.50;;;;;;5045139;28;20098;-35
2021/05/24 03:20:54;;;;;;;1.88;0.80;;;21.20;44.60;;;;;;5048617;28;20471;-34
2021/05/24 03:23:20;;;;;;;1.95;1.23;;;21.20;44.60;;;;;;5049340;28;20029;-35
2021/05/24 03:25:46;;;;;;;2.22;1.15;;;21.20;44.60;;;;;;5054378;28;20035;-34
2021/05/24 03:28:11;;;;;;;2.20;0.90;;;21.20;44.60;;;;;;5049727;28;20033;-34
2021/05/24 03:30:37;;;;;;;3.30;0.90;;;21.20;45.30;;;;;;5056154;28;20052;-35
2021/05/24 03:33:03;;;;;;;2.22;0.93;;;21.20;44.60;;;;;;5044696;28;20454;-35
2021/05/24 03:35:29;;;;;;;3.10;0.80;;;21.20;44.60;;;;;;5050498;28;20028;-34
2021/05/24 03:37:54;;;;;;;2.92;1.10;;;21.20;44.60;;;;;;5050400;28;20086;-34
2021/05/24 03:40:20;;;;;;;1.20;0.73;;;21.20;44.60;;;;;;5051403;28;20090;-34
2021/05/24 03:42:46;;;;;;;2.25;0.88;;;21.30;44.70;;;;;;5052307;28;20029;-34
2021/05/24 03:45:17;;;;;;;1.63;0.90;;;21.20;44.70;;;;;;5052185;28;20024;-34
2021/05/24 03:47:44;;;;;;;2.80;0.75;;;21.20;44.70;;;;;;5055086;28;20180;-34
2021/05/24 03:50:11;;;;;;;2.22;1.00;;;21.20;44.70;;;;;;5054004;28;20061;-34
2021/05/24 03:52:37;;;;;;;1.75;1.00;;;21.20;44.70;;;;;;5056439;28;20056;-34
2021/05/24 03:55:03;;;;;;;2.88;0.95;;;21.20;44.70;;;;;;5051978;28;20057;-34
2021/05/24 03:57:29;;;;;;;1.30;0.80;;;21.20;44.70;;;;;;5052973;28;20502;-35
2021/05/24 03:59:55;;;;;;;4.80;0.90;;;21.20;44.70;;;;;;5055091;28;20033;-34
2021/05/24 04:02:20;;;;;;;2.30;1.00;;;21.20;44.80;;;;;;5052598;28;20044;-34
2021/05/24 04:04:46;;;;;;;2.80;1.10;;;21.20;44.90;;;;;;5054335;28;20207;-34
2021/05/24 04:07:18;;;;;;;1.70;0.88;;;21.20;45.10;;;;;;5055822;28;20489;-34
2021/05/24 04:09:44;;;;;;;2.60;0.70;;;21.20;45.20;;;;;;5053890;28;20090;-34
2021/05/24 04:12:10;;;;;;;7.75;1.15;;;21.20;45.00;;;;;;5049226;28;20021;-36
2021/05/24 04:14:36;;;;;;;1.40;0.88;;;21.20;45.00;;;;;;5051972;28;20033;-34
2021/05/24 04:17:02;;;;;;;5.15;0.80;;;21.20;45.00;;;;;;5052400;28;20521;-35
2021/05/24 04:19:28;;;;;;;5.43;1.00;;;21.30;45.10;;;;;;5050714;28;20116;-39
2021/05/24 04:21:53;;;;;;;3.95;1.00;;;21.20;45.10;;;;;;5056459;28;20103;-34
2021/05/24 04:24:22;;;;;;;2.08;0.80;;;21.20;45.10;;;;;;5050799;28;20072;-34
2021/05/24 04:26:48;;;;;;;2.97;0.80;;;21.20;45.10;;;;;;5052164;28;20033;-35
2021/05/24 04:29:13;;;;;;;4.18;1.08;;;21.20;45.10;;;;;;5051621;28;20120;-34
2021/05/24 04:31:39;;;;;;;2.78;1.17;;;21.30;45.10;;;;;;5053501;28;20453;-34
2021/05/24 04:34:06;;;;;;;4.32;0.93;;;21.30;45.10;;;;;;5046509;28;20118;-35
2021/05/24 04:36:31;;;;;;;5.60;1.25;;;21.20;45.30;;;;;;5054009;28;20041;-36
2021/05/24 04:39:00;;;;;;;4.53;1.00;;;21.20;45.20;;;;;;5055159;28;20024;-33
2021/05/24 04:41:25;;;;;;;3.50;1.00;;;21.20;45.30;;;;;;5052332;28;20048;-38
2021/05/24 04:43:55;;;;;;;3.20;0.70;;;21.20;45.30;;;;;;5059562;28;20028;-34
2021/05/24 04:46:21;;;;;;;4.32;0.88;;;21.20;45.30;;;;;;5058411;28;20044;-34
2021/05/24 04:48:47;;;;;;;1.60;1.40;;;21.20;45.30;;;;;;5059722;28;20099;-34
2021/05/24 04:51:12;;;;;;;1.45;0.70;;;21.20;45.30;;;;;;5053569;28;20025;-34
2021/05/24 04:53:38;;;;;;;4.10;0.80;;;21.20;45.30;;;;;;5050993;28;20382;-34
2021/05/24 04:56:04;;;;;;;6.95;0.80;;;21.30;45.20;;;;;;5052398;28;20036;-34
2021/05/24 04:58:29;;;;;;;2.83;0.90;;;21.20;45.20;;;;;;5049663;28;20057;-51
2021/05/24 05:00:56;;;;;;;2.08;0.90;;;21.20;45.40;;;;;;5049037;28;20025;-35
2021/05/24 05:03:22;;;;;;;1.00;0.70;;;21.20;45.30;;;;;;5051059;28;20044;-35
2021/05/24 05:05:47;;;;;;;3.13;1.00;;;21.20;45.30;;;;;;5047775;28;20025;-34
2021/05/24 05:08:13;;;;;;;2.45;0.70;;;21.20;45.30;;;;;;5051748;28;20367;-36
2021/05/24 05:10:39;;;;;;;2.95;1.02;;;21.20;45.20;;;;;;5048807;28;20108;-35
2021/05/24 05:13:04;;;;;;;3.30;0.70;;;21.20;45.40;;;;;;5047525;28;20024;-37
2021/05/24 05:15:30;;;;;;;3.55;0.70;;;21.20;45.60;;;;;;5042241;28;20033;-39
2021/05/24 05:17:56;;;;;;;5.75;1.00;;;21.30;45.70;;;;;;5035964;28;20292;-40
2021/05/24 05:20:22;;;;;;;3.60;1.13;;;21.30;45.50;;;;;;5038600;28;20029;-34
2021/05/24 05:22:47;;;;;;;6.57;1.20;;;21.40;45.70;;;;;;5036001;28;20100;-34
2021/05/24 05:25:13;;;;;;;3.38;0.98;;;21.40;45.70;;;;;;5047676;28;20025;-34
2021/05/24 05:27:39;;;;;;;2.63;0.80;;;21.40;46.10;;;;;;5050087;28;20045;-34
2021/05/24 05:30:06;;;;;;;4.03;0.98;;;21.40;46.10;;;;;;5059055;28;20119;-35
2021/05/24 05:32:32;;;;;;;3.10;1.50;;;21.40;46.20;;;;;;5051503;28;20029;-41
2021/05/24 05:34:58;;;;;;;4.90;1.13;;;21.40;46.30;;;;;;5054447;28;20598;-37
2021/05/24 05:37:23;;;;;;;2.35;0.93;;;21.40;46.30;;;;;;5050587;28;20393;-35
2021/05/24 05:39:54;;;;;;;3.70;0.90;;;20.80;42.80;;;;;;5047495;28;20025;-34
2021/05/24 05:42:20;;;;;;;2.13;1.00;;;19.80;44.00;;;;;;5049988;28;20033;-33
2021/05/24 05:44:46;;;;;;;3.65;0.90;;;19.10;45.50;;;;;;5048425;28;20033;-33
2021/05/24 05:47:12;;;;;;;3.30;1.15;;;18.90;46.30;;;;;;5049259;28;20071;-33
2021/05/24 05:49:38;;;;;;;1.52;0.90;;;18.80;46.60;;;;;;5048826;28;20057;-33
2021/05/24 05:52:05;;;;;;;1.58;1.10;;;18.70;46.30;;;;;;5049271;28;20418;-33
2021/05/24 05:54:30;;;;;;;4.65;1.50;;;18.70;46.30;;;;;;5049398;28;20068;-47
2021/05/24 05:56:56;;;;;;;2.20;1.40;;;18.60;46.70;;;;;;5049954;28;20068;-33
2021/05/24 05:59:22;;;;;;;6.97;1.30;;;18.60;47.20;;;;;;5048960;28;20077;-34
2021/05/24 06:01:47;;;;;;;6.80;1.42;;;18.50;47.00;;;;;;5057694;28;20486;-34
2021/05/24 06:04:13;;;;;;;9.27;2.42;;;18.80;46.80;;;;;;5050472;28;20489;-39
2021/05/24 06:06:39;;;;;;;8.00;1.45;;;19.40;45.70;;;;;;5052743;28;20041;-35
2021/05/24 06:09:05;;;;;;;6.07;1.50;;;19.90;45.50;;;;;;5054565;28;20021;-35
2021/05/24 06:11:30;;;;;;;4.40;1.23;;;20.20;45.10;;;;;;5046262;28;20044;-40
2021/05/24 06:13:56;;;;;;;4.35;1.10;;;20.40;45.70;;;;;;5061660;28;20036;-35
2021/05/24 06:16:22;;;;;;;3.22;1.45;;;20.60;45.20;;;;;;5051137;28;20038;-36
2021/05/24 06:18:47;;;;;;;9.48;2.33;;;20.70;45.10;;;;;;5058382;28;20023;-36
2021/05/24 06:21:14;;;;;;;3.88;1.20;;;20.80;45.30;;;;;;5054488;28;20100;-35
2021/05/24 06:23:45;;;;;;;6.63;1.65;;;20.80;45.10;;;;;;5055943;28;20048;-35
2021/05/24 06:26:10;;;;;;;2.65;0.95;;;20.90;45.00;;;;;;5056766;28;20037;-36
2021/05/24 06:28:37;;;;;;;5.60;1.48;;;21.00;45.30;;;;;;5053427;28;20430;-35
2021/05/24 06:31:02;;;;;;;1.67;0.93;;;21.00;45.30;;;;;;5051473;28;20035;-37
2021/05/24 06:33:28;;;;;;;3.55;1.38;;;21.10;45.40;;;;;;5051042;28;20028;-36
2021/05/24 06:35:54;;;;;;;5.88;2.08;;;21.00;45.20;;;;;;5049669;28;20032;-35
2021/05/24 06:38:19;;;;;;;3.97;1.50;;;21.10;45.40;;;;;;5059539;28;20060;-36
2021/05/24 06:40:45;;;;;;;8.20;1.30;;;21.10;45.40;;;;;;5044928;28;20522;-35
2021/05/24 06:43:11;;;;;;;4.28;1.20;;;21.10;45.60;;;;;;5037749;28;20466;-33
2021/05/24 06:45:37;;;;;;;2.88;1.55;;;21.10;45.90;;;;;;5056351;28;20032;-34
2021/05/24 06:48:03;;;;;;;2.38;1.10;;;21.20;46.00;;;;;;5046318;28;20037;-34
2021/05/24 06:50:29;;;;;;;8.52;2.47;;;21.30;46.00;;;;;;5059964;28;20043;-33
2021/05/24 06:52:56;;;;;;;2.63;1.10;;;21.30;45.50;;;;;;5048960;28;20061;-38
2021/05/24 06:55:21;;;;;;;5.80;1.90;;;21.40;45.90;;;;;;5046427;28;20033;-33
2021/05/24 06:57:47;;;;;;;2.90;1.13;;;21.40;45.80;;;;;;5049997;28;20510;-33
2021/05/24 07:00:13;;;;;;;1.58;1.00;;;21.50;45.70;;;;;;5050905;28;20036;-35
2021/05/24 07:02:41;;;;;;;2.40;1.05;;;21.50;45.90;;;;;;5056647;28;20112;-34
2021/05/24 07:05:08;;;;;;;2.28;1.25;;;21.40;45.80;;;;;;5050127;28;20036;-34
2021/05/24 07:07:35;;;;;;;2.92;1.20;;;21.40;45.90;;;;;;5047267;28;20056;-40
2021/05/24 07:10:01;;;;;;;3.50;1.58;;;21.40;46.20;;;;;;5049980;28;20040;-34
2021/05/24 07:12:27;;;;;;;2.92;1.13;;;21.40;46.10;;;;;;5050825;28;20029;-34
2021/05/24 07:14:54;;;;;;;5.63;1.30;;;21.30;45.70;;;;;;5051064;28;20021;-34
2021/05/24 07:17:21;;;;;;;3.65;1.90;;;21.30;45.80;;;;;;5053224;28;20045;-34
2021/05/24 07:19:47;;;;;;;3.45;1.50;;;21.20;44.00;;;;;;5054632;28;20036;-33
2021/05/24 07:22:13;;;;;;;4.18;1.42;;;20.80;43.20;;;;;;5050773;28;20033;-32
2021/05/24 07:24:39;;;;;;;6.20;1.98;;;20.60;43.60;;;;;;5059279;28;20077;-33
2021/05/24 07:27:06;;;;;;;3.15;1.70;;;20.70;43.70;;;;;;5054079;28;20040;-32
2021/05/24 07:29:31;;;;;;;2.38;1.20;;;20.70;43.90;;;;;;5061326;28;20033;-32
2021/05/24 07:31:57;;;;;;;3.78;1.40;;;20.80;43.80;;;;;;5051799;28;20355;-32
2021/05/24 07:34:23;;;;;;;3.03;1.88;;;21.00;43.80;;;;;;5054591;28;20033;-32
2021/05/24 07:36:48;;;;;;;2.97;1.40;;;21.20;44.30;;;;;;5051452;28;20509;-32
2021/05/24 07:39:14;;;;;;;4.53;1.45;;;21.30;44.30;;;;;;5051995;28;20032;-32
2021/05/24 07:41:40;;;;;;;2.88;1.35;;;21.40;44.20;;;;;;5053753;28;20036;-35
2021/05/24 07:44:06;;;;;;;5.25;1.23;;;21.50;44.60;;;;;;5064319;28;20038;-32
2021/05/24 07:46:33;;;;;;;3.58;1.40;;;21.60;44.80;;;;;;5062164;28;20033;-42
2021/05/24 07:48:58;;;;;;;6.03;1.38;;;21.60;45.50;;;;;;5053975;28;20057;-43
2021/05/24 07:51:25;;;;;;;9.52;1.65;;;21.60;45.40;;;;;;5060087;28;20052;-43
2021/05/24 07:53:52;;;;;;;6.38;1.75;;;21.60;45.40;;;;;;5055197;28;20103;-43
2021/05/24 07:56:18;;;;;;;6.32;1.33;;;21.60;45.50;;;;;;5052077;28;20035;-42
2021/05/24 07:58:43;;;;;;;6.63;2.28;;;21.60;45.30;;;;;;5051127;28;20124;-43
2021/05/24 08:01:09;;;;;;;7.65;1.58;;;21.60;45.50;;;;;;5050599;28;20029;-42
2021/05/24 08:03:35;;;;;;;11.00;1.50;;;21.40;44.40;;;;;;5052656;28;20024;-43
2021/05/24 08:06:01;;;;;;;3.90;1.05;;;21.30;45.20;;;;;;5052419;28;20473;-42
2021/05/24 08:08:26;;;;;;;12.38;1.50;;;21.40;45.30;;;;;;5060470;28;20517;-42
2021/05/24 08:10:52;;;;;;;5.25;1.40;;;21.40;45.30;;;;;;5048151;28;20025;-42
2021/05/24 08:13:17;;;;;;;4.55;1.30;;;21.40;45.40;;;;;;5050749;28;20541;-42
2021/05/24 08:15:43;;;;;;;6.82;1.30;;;21.40;45.40;;;;;;5050489;28;20379;-44
2021/05/24 08:18:09;;;;;;;5.35;1.90;;;21.50;45.50;;;;;;5031534;28;20060;-42
2021/05/24 08:20:36;;;;;;;6.72;1.38;;;21.50;46.00;;;;;;5048307;28;20029;-45
2021/05/24 08:23:03;;;;;;;5.70;1.80;;;21.50;45.80;;;;;;5029954;28;20029;-42
2021/05/24 08:25:29;;;;;;;5.22;1.40;;;21.10;44.30;;;;;;5049358;28;20112;-42
2021/05/24 08:27:55;;;;;;;2.42;1.27;;;20.40;45.80;;;;;;5050520;28;20086;-42
2021/05/24 08:30:21;;;;;;;2.25;1.25;;;20.10;46.50;;;;;;5052491;28;20041;-42
2021/05/24 08:32:47;;;;;;;1.38;0.88;;;19.90;45.50;;;;;;5049958;28;20024;-42
2021/05/24 08:35:13;;;;;;;4.82;1.33;;;19.90;45.70;;;;;;5056940;28;20389;-42
2021/05/24 08:37:40;;;;;;;2.03;0.75;;;19.90;44.80;;;;;;5052622;28;20035;-48
2021/05/24 08:40:07;;;;;;;2.03;0.80;;;19.90;44.70;;;;;;5048271;28;20539;-42
2021/05/24 08:42:41;;;;;;;1.67;0.75;;;19.90;44.60;;;;;;5046956;28;20112;-44
2021/05/24 08:45:08;;;;;;;2.95;1.10;;;20.10;44.20;;;;;;5034222;28;20120;-43
2021/05/24 08:47:34;;;;;;;3.70;0.70;;;20.20;44.20;;;;;;5050681;28;20044;-43
2021/05/24 08:49:59;;;;;;;2.72;0.88;;;20.50;44.90;;;;;;5053285;28;20581;-42
2021/05/24 08:52:29;;;;;;;3.33;0.90;;;20.80;44.60;;;;;;5057472;28;20059;-43
2021/05/24 08:54:55;;;;;;;4.25;0.80;;;21.00;44.60;;;;;;5051293;28;20032;-42
2021/05/24 08:57:21;;;;;;;2.92;0.75;;;21.10;44.40;;;;;;5049957;28;20111;-43
2021/05/24 08:59:47;;;;;;;3.35;0.80;;;21.20;44.40;;;;;;5051916;28;20493;-43
2021/05/24 09:02:13;;;;;;;3.35;0.90;;;21.10;44.40;;;;;;5050842;28;20033;-42
2021/05/24 09:04:48;;;;;;;2.42;0.80;;;21.20;44.60;;;;;;5052325;28;20176;-49
2021/05/24 09:07:15;;;;;;;3.17;1.00;;;21.20;44.70;;;;;;5052038;28;20063;-42
2021/05/24 09:10:02;;;;;;;5.10;1.00;;;21.20;44.70;;;;;;5051792;28;20386;-49
2021/05/24 09:12:32;;;;;;;2.65;0.80;;;21.20;45.40;;;;;;5052024;28;20367;-42
2021/05/24 09:15:01;;;;;;;3.00;1.00;;;21.20;44.70;;;;;;5051731;28;20036;-42
2021/05/24 09:17:49;;;;;;;2.47;1.10;;;21.30;44.80;;;;;;5050914;28;20441;-42
2021/05/24 09:20:24;;;;;;;5.20;0.90;;;21.30;44.80;;;;;;5052089;28;20025;-42
2021/05/24 09:23:10;;;;;;;3.97;1.00;;;21.30;44.80;;;;;;5050635;28;20032;-42
2021/05/24 09:25:54;;;;;;;3.42;0.73;;;21.30;44.90;;;;;;5052390;28;20083;-44
2021/05/24 09:28:36;;;;;;;0.95;0.73;;;21.30;44.90;;;;;;5045932;28;20047;-42
2021/05/24 09:31:07;;;;;;;2.25;0.80;;;21.30;44.90;;;;;;5049884;28;20033;-42
2021/05/24 09:33:34;;;;;;;2.80;0.75;;;21.30;45.00;;;;;;5052244;28;20124;-42
2021/05/24 09:36:00;;;;;;;1.30;0.82;;;21.30;45.00;;;;;;5047961;28;20025;-42
2021/05/24 09:38:31;;;;;;;2.28;0.90;;;21.40;45.10;;;;;;5047284;28;20360;-42
2021/05/24 09:40:59;;;;;;;;;;;21.40;45.10;;;;;;5051266;28;20028;-42
2021/05/24 09:43:42;;;;;;;1.83;0.65;;;21.40;45.10;;;;;;5052083;28;20357;-43
2021/05/24 09:46:33;;;;;;;1.83;0.73;;;21.40;45.10;;;;;;5044591;28;20024;-43
2021/05/24 09:49:02;;;;;;;0.80;0.60;;;21.40;45.20;;;;;;5050116;28;20039;-42
2021/05/24 09:51:30;;;;;;;2.83;1.10;;;21.40;45.20;;;;;;5051778;28;20060;-42
2021/05/24 09:54:05;;;;;;;2.33;0.70;;;21.40;45.20;;;;;;5048861;28;20021;-42
2021/05/24 09:56:36;;;;;;;1.88;0.80;;;21.40;45.20;;;;;;5051920;28;20028;-42
2021/05/24 09:59:10;;;;;;;1.15;0.65;;;21.40;45.20;;;;;;5050531;28;20053;-42
2021/05/24 10:01:43;;;;;;;1.77;1.20;;;21.40;45.20;;;;;;5049685;28;20032;-42
2021/05/24 10:04:20;;;;;;;1.67;0.68;;;21.40;45.30;;;;;;5051942;28;20033;-42
2021/05/24 10:06:46;;;;;;;3.22;0.77;;;21.40;45.30;;;;;;5050694;28;20436;-43
2021/05/24 10:09:14;;;;;;;1.67;0.80;;;21.40;45.30;;;;;;5051836;28;20024;-42
2021/05/24 10:11:45;;;;;;;1.90;0.90;;;21.40;45.30;;;;;;5049942;28;20047;-42
2021/05/24 10:14:16;;;;;;;4.33;1.10;;;21.40;45.40;;;;;;5043707;28;20061;-43
2021/05/24 10:16:48;;;;;;;2.17;0.90;;;21.40;45.40;;;;;;5049987;28;20279;-49
2021/05/24 10:19:17;;;;;;;2.15;0.80;;;21.40;45.50;;;;;;5050649;28;20028;-42
2021/05/24 10:21:44;;;;;;;1.70;0.70;;;21.40;45.50;;;;;;5050024;28;20071;-49
2021/05/24 10:24:10;;;;;;;1.00;0.85;;;21.50;45.50;;;;;;5051159;28;20378;-42
2021/05/24 10:26:38;;;;;;;3.22;0.73;;;21.40;45.50;;;;;;5051126;28;20078;-43
2021/05/24 10:29:04;;;;;;;2.88;1.27;;;21.40;45.60;;;;;;5050577;28;20216;-43
2021/05/24 10:31:32;;;;;;;1.27;0.68;;;21.50;45.60;;;;;;5047931;28;20028;-42
2021/05/24 10:34:19;;;;;;;1.58;0.70;;;21.40;45.70;;;;;;5047907;28;20054;-42
2021/05/24 10:37:04;;;;;;;2.65;0.73;;;21.50;45.70;;;;;;5050687;28;20043;-49
2021/05/24 10:39:42;;;;;;;1.63;0.90;;;21.50;45.60;;;;;;5051018;28;20528;-42
2021/05/24 10:42:11;;;;;;;1.85;0.80;;;21.50;45.50;;;;;;5045863;28;20020;-41
2021/05/24 10:44:45;;;;;;;2.67;0.75;;;21.50;45.50;;;;;;5046787;28;20031;-42
2021/05/24 10:47:19;;;;;;;2.05;0.80;;;21.40;45.30;;;;;;5049081;28;20037;-46
2021/05/24 10:50:04;;;;;;;1.83;0.68;;;21.50;45.40;;;;;;5050534;28;20025;-47
2021/05/24 10:52:35;;;;;;;1.33;0.65;;;21.50;45.40;;;;;;5055325;28;20104;-41
2021/05/24 10:55:21;;;;;;;1.00;0.88;;;21.50;45.30;;;;;;5052372;28;20477;-41
2021/05/24 10:57:57;;;;;;;1.40;0.68;;;21.50;45.30;;;;;;5053719;28;20186;-42
2021/05/24 11:00:24;;;;;;;1.48;0.80;;;21.50;45.30;;;;;;5054949;28;20033;-41
2021/05/24 11:02:54;;;;;;;3.67;0.80;;;21.50;45.30;;;;;;5052852;28;20474;-42
2021/05/24 11:05:27;;;;;;;2.22;0.95;;;21.50;45.30;;;;;;5055022;28;20129;-41
2021/05/24 11:07:58;;;;;;;1.67;0.73;;;21.50;45.30;;;;;;5053240;28;20040;-41
2021/05/24 11:10:30;;;;;;;1.63;0.93;;;21.50;45.30;;;;;;5054834;28;20029;-41
2021/05/24 11:13:17;;;;;;;1.77;0.80;;;21.50;45.30;;;;;;5054188;28;20021;-41
2021/05/24 11:15:44;;;;;;;0.80;0.60;;;21.50;45.10;;;;;;5053620;28;20344;-47
2021/05/24 11:18:17;;;;;;;2.70;1.52;;;21.50;45.10;;;;;;5060608;28;20485;-41
2021/05/24 11:20:52;;;;;;;1.13;1.00;;;21.50;45.20;;;;;;5036963;28;20028;-47
2021/05/24 11:26:32;;;;;;;0.95;0.52;;;21.50;45.20;;;;;;5051981;28;20521;-41
2021/05/24 11:29:08;;;;;;;2.38;0.50;;;21.50;45.10;;;;;;5052299;28;20044;-41
2021/05/24 11:31:34;;;;;;;2.70;0.65;;;21.50;45.10;;;;;;5036922;28;20091;-41
2021/05/24 11:34:00;;;;;;;1.02;0.70;;;21.50;45.00;;;;;;5052663;28;20050;-41
2021/05/24 11:36:35;;;;;;;0.98;0.60;;;21.50;45.00;;;;;;5054421;28;20151;-41
2021/05/24 11:39:07;;;;;;;1.02;0.60;;;21.50;45.10;;;;;;5052274;28;20108;-41
2021/05/24 11:41:34;;;;;;;2.40;0.75;;;21.50;45.10;;;;;;5054026;28;20104;-41
2021/05/24 11:44:03;;;;;;;1.55;0.85;;;21.50;44.80;;;;;;5053312;28;20103;-41
2021/05/24 11:46:49;;;;;;;1.25;0.50;;;21.50;44.70;;;;;;5053918;28;20041;-41
2021/05/24 11:49:16;;;;;;;1.33;0.68;;;21.50;44.70;;;;;;5052187;28;20116;-41
2021/05/24 11:51:43;;;;;;;1.65;0.50;;;21.50;44.70;;;;;;5054360;28;20043;-41
2021/05/24 11:54:21;;;;;;;0.82;0.60;;;21.50;45.40;;;;;;5053583;28;20048;-41
2021/05/24 11:56:51;;;;;;;0.80;0.50;;;21.50;44.80;;;;;;5053125;28;20055;-47
2021/05/24 11:59:22;;;;;;;0.95;0.50;;;21.60;45.00;;;;;;5053315;28;20120;-41
2021/05/24 12:01:49;;;;;;;0.90;0.50;;;21.60;44.90;;;;;;5052970;28;20064;-45
2021/05/24 12:04:17;;;;;;;0.90;0.40;;;21.60;44.80;;;;;;5052594;28;20478;-41
2021/05/24 12:06:58;;;;;;;0.82;0.77;;;21.60;44.80;;;;;;5054212;28;20044;-41
2021/05/24 12:09:45;;;;;;;0.85;0.60;;;21.60;44.90;;;;;;5046528;28;20025;-41
2021/05/24 12:12:38;;;;;;;0.77;0.65;;;21.60;45.10;;;;;;5050734;28;20029;-41
2021/05/24 12:15:09;;;;;;;1.38;0.73;;;21.60;45.10;;;;;;5052953;28;20044;-41
2021/05/24 12:17:35;;;;;;;0.82;0.60;;;21.50;45.10;;;;;;5052595;28;20041;-41
2021/05/24 12:20:05;;;;;;;2.08;1.17;;;21.60;45.20;;;;;;5046238;28;20036;-41
2021/05/24 12:22:39;;;;;;;1.13;0.70;;;21.60;45.30;;;;;;5053136;28;20493;-42
2021/05/24 12:25:05;;;;;;;0.85;0.60;;;21.60;45.20;;;;;;5052581;28;20060;-42
2021/05/24 12:27:31;;;;;;;0.68;0.50;;;21.60;45.20;;;;;;5051434;28;20048;-41
2021/05/24 12:30:16;;;;;;;0.60;0.50;;;21.60;45.30;;;;;;5047465;28;20547;-41
2021/05/24 12:32:50;;;;;;;1.27;1.05;;;21.60;45.30;;;;;;5052432;28;21734;-41
2021/05/24 12:35:20;;;;;;;3.08;0.70;;;21.60;45.30;;;;;;5052995;28;20464;-41
2021/05/24 12:37:55;;;;;;;0.93;0.50;;;21.60;45.20;;;;;;5053035;28;20028;-48
2021/05/24 12:40:24;;;;;;;0.55;0.32;;;21.60;45.00;;;;;;5051755;28;20037;-41
2021/05/24 12:42:50;;;;;;;2.03;0.55;;;21.60;44.80;;;;;;5051687;28;20108;-43
2021/05/24 12:45:16;;;;;;;1.35;0.60;;;21.60;44.70;;;;;;5052774;28;20053;-41
2021/05/24 12:47:42;;;;;;;2.00;0.47;;;21.60;44.60;;;;;;5051899;28;20044;-41
2021/05/24 12:50:15;;;;;;;1.02;0.47;;;21.60;44.60;;;;;;5052057;28;20013;-42
2021/05/24 12:52:41;;;;;;;1.08;0.57;;;21.60;44.50;;;;;;5051841;28;20039;-42
2021/05/24 12:55:18;;;;;;;0.80;0.40;;;21.60;44.60;;;;;;5052346;28;20028;-41